Terminal Aerodrome Forecast
Issued by NWS

Home | Current Version | Previous Version | Text Only | Print | Product List | Glossary On
Versions: 1 2 3 4 5 6 7 8 9 10 11 12 13 14 15 16 17 18 19 20 21 22 23 24 25 26 27 28 29 30
000
FTUS45 KGGW 311459 AAB
TAFGDV
TAF AMD
KGDV 311459Z 3115/0112 32018G26KT P6SM -SHRA SCT015 OVC040
     FM312000 32021G31KT 6SM -SHRA OVC020
     FM010000 33019G27KT P6SM BKN035
     FM010300 31009KT P6SM BKN045
      AMD LTD TO CLD VIS AND WIND=

USA.gov is the U.S. government's official web portal to all federal, state and local government web resources and services.